createdAt,value
2016-08-29T00:04:47.678Z,1008.69
2016-08-29T00:09:44.816Z,1008.66
2016-08-29T00:14:41.127Z,1008.60
2016-08-29T00:19:37.791Z,1008.64
2016-08-29T00:24:34.502Z,1008.55
2016-08-29T00:29:31.211Z,1008.53
2016-08-29T00:34:27.906Z,1008.57
2016-08-29T00:39:24.760Z,1008.53
2016-08-29T00:44:21.414Z,1008.49
2016-08-29T00:49:18.242Z,1008.50
2016-08-29T00:54:14.888Z,1008.47
2016-08-29T00:59:11.734Z,1008.43
2016-08-29T01:04:08.450Z,1008.42
2016-08-29T01:09:05.306Z,1008.44
2016-08-29T01:14:02.674Z,1008.46
2016-08-29T01:18:59.224Z,1008.38
2016-08-29T01:23:55.982Z,1008.22
2016-08-29T01:28:52.731Z,1008.22
2016-08-29T01:33:49.737Z,1008.29
2016-08-29T01:38:46.417Z,1008.28
2016-08-29T01:43:43.121Z,1008.38
2016-08-29T01:48:40.177Z,1008.29
2016-08-29T01:53:37.029Z,1008.40
2016-08-29T01:58:33.612Z,1008.42
2016-08-29T02:03:30.212Z,1008.56
2016-08-29T02:08:26.994Z,1008.51
2016-08-29T02:13:26.131Z,1008.50
2016-08-29T02:18:22.220Z,1008.50
2016-08-29T02:23:18.778Z,1008.64
2016-08-29T02:28:17.840Z,1008.61
2016-08-29T02:33:13.931Z,1008.65
2016-08-29T02:38:10.649Z,1008.64
2016-08-29T02:43:07.219Z,1008.56
2016-08-29T02:48:04.091Z,1008.54
2016-08-29T02:53:01.116Z,1008.54
2016-08-29T02:57:57.661Z,1008.57
2016-08-29T03:02:54.364Z,1008.58
2016-08-29T03:07:51.545Z,1008.61
2016-08-29T03:12:48.547Z,1008.66
2016-08-29T03:17:45.311Z,1008.65
2016-08-29T03:22:42.093Z,1008.65
2016-08-29T03:27:38.708Z,1008.72
2016-08-29T03:32:35.374Z,1008.57
2016-08-29T03:37:31.987Z,1008.60
2016-08-29T03:42:28.725Z,1008.60
2016-08-29T03:47:25.473Z,1008.57
2016-08-29T03:52:23.023Z,1008.63
2016-08-29T03:57:19.229Z,1008.70
2016-08-29T04:02:15.682Z,1008.57
2016-08-29T04:07:14.712Z,1008.69
2016-08-29T04:12:10.760Z,1008.72
2016-08-29T04:17:08.098Z,1008.79
2016-08-29T04:22:04.908Z,1008.82
2016-08-29T04:27:01.481Z,1008.79
2016-08-29T04:31:58.109Z,1008.74
2016-08-29T04:36:54.872Z,1008.87
2016-08-29T04:41:51.564Z,1008.88
2016-08-29T04:46:48.191Z,1008.97
2016-08-29T04:51:44.722Z,1008.97
2016-08-29T04:56:41.391Z,1009.12
2016-08-29T05:01:37.899Z,1009.11
2016-08-29T05:06:34.408Z,1009.18
2016-08-29T05:11:31.205Z,1009.36
2016-08-29T05:16:27.712Z,1009.50
2016-08-29T05:21:24.237Z,1009.54
2016-08-29T05:26:21.051Z,1009.50
2016-08-29T05:31:17.826Z,1009.61
2016-08-29T05:36:14.438Z,1009.60
2016-08-29T05:41:11.106Z,1009.61
2016-08-29T05:46:07.752Z,1009.66
2016-08-29T05:51:04.437Z,1009.68
2016-08-29T05:56:00.854Z,1009.62
2016-08-29T06:00:57.601Z,1009.78
2016-08-29T06:05:54.000Z,1009.81
2016-08-29T06:10:50.522Z,1009.94
2016-08-29T06:15:47.107Z,1010.00
2016-08-29T06:20:43.757Z,1010.11
2016-08-29T06:25:41.798Z,1010.18
2016-08-29T06:30:38.134Z,1010.25
2016-08-29T06:35:35.415Z,1010.32
2016-08-29T06:40:32.234Z,1010.23
2016-08-29T06:45:29.482Z,1010.35
2016-08-29T06:50:26.213Z,1010.38
2016-08-29T06:55:25.371Z,1010.39
2016-08-29T07:00:21.504Z,1010.48
2016-08-29T07:05:18.213Z,1010.56
2016-08-29T07:10:14.939Z,1010.59
2016-08-29T07:15:11.641Z,1010.67
2016-08-29T07:20:08.280Z,1010.62
2016-08-29T07:25:04.973Z,1010.64
2016-08-29T07:30:01.526Z,1010.65
2016-08-29T07:34:58.662Z,1010.61
2016-08-29T07:39:55.302Z,1010.76
2016-08-29T07:44:52.067Z,1010.63
2016-08-29T07:49:48.792Z,1010.71
2016-08-29T07:54:45.891Z,1010.67
2016-08-29T07:59:42.591Z,1010.74
2016-08-29T08:04:39.141Z,1010.88
2016-08-29T08:09:35.579Z,1010.93
2016-08-29T08:14:32.352Z,1011.08
2016-08-29T08:19:29.036Z,1011.16
2016-08-29T08:24:25.724Z,1011.16
2016-08-29T08:29:23.089Z,1011.15
2016-08-29T08:34:19.625Z,1011.23
2016-08-29T08:39:16.757Z,1011.17
2016-08-29T08:44:13.807Z,1011.26
2016-08-29T08:49:10.225Z,1011.23
2016-08-29T08:54:07.797Z,1011.24
2016-08-29T08:59:04.400Z,1011.23
2016-08-29T09:04:00.361Z,1011.27
2016-08-29T09:08:56.807Z,1011.50
2016-08-29T09:13:53.256Z,1011.56
2016-08-29T09:18:51.544Z,1011.69
2016-08-29T09:23:47.801Z,1011.79
2016-08-29T09:28:44.533Z,1011.79
2016-08-29T09:33:41.209Z,1011.94
2016-08-29T09:38:38.055Z,1011.93
2016-08-29T09:43:34.715Z,1011.81
2016-08-29T09:48:31.544Z,1011.92
2016-08-29T09:53:28.580Z,1012.02
2016-08-29T09:58:25.447Z,1011.94
2016-08-29T10:03:22.103Z,1011.97
2016-08-29T10:08:18.694Z,1011.96
2016-08-29T10:13:15.469Z,1011.99
2016-08-29T10:18:12.547Z,1012.01
2016-08-29T10:23:09.333Z,1012.01
2016-08-29T10:28:05.776Z,1012.01
2016-08-29T10:33:02.550Z,1012.11
2016-08-29T10:37:59.307Z,1012.03
2016-08-29T10:42:55.924Z,1012.05
2016-08-29T10:47:53.465Z,1012.03
2016-08-29T10:52:49.833Z,1012.11
2016-08-29T10:57:46.524Z,1012.16
2016-08-29T11:02:43.189Z,1012.22
2016-08-29T11:07:40.971Z,1012.17
2016-08-29T11:12:37.563Z,1012.27
2016-08-29T11:17:35.171Z,1012.38
2016-08-29T11:22:31.558Z,1012.15
2016-08-29T11:27:28.242Z,1012.32
2016-08-29T11:32:25.009Z,1012.46
2016-08-29T11:37:22.108Z,1012.44
2016-08-29T11:42:18.895Z,1012.37
2016-08-29T11:47:17.002Z,1012.49
2016-08-29T11:52:13.436Z,1012.52
2016-08-29T11:57:10.116Z,1012.59
2016-08-29T12:02:07.005Z,1012.57
2016-08-29T12:07:04.123Z,1012.51
2016-08-29T12:12:00.742Z,1012.66
2016-08-29T12:16:57.849Z,1012.63
2016-08-29T12:21:54.624Z,1012.73
2016-08-29T12:26:51.369Z,1012.83
2016-08-29T12:31:47.983Z,1012.75
2016-08-29T12:36:44.655Z,1012.75
2016-08-29T12:41:41.017Z,1012.83
2016-08-29T12:46:37.708Z,1012.88
2016-08-29T12:51:34.384Z,1012.82
2016-08-29T12:56:31.070Z,1012.87
2016-08-29T13:01:27.765Z,1012.85
2016-08-29T13:06:24.416Z,1012.92
2016-08-29T13:11:21.007Z,1012.90
2016-08-29T13:16:17.718Z,1012.87
2016-08-29T13:21:14.473Z,1012.85
2016-08-29T13:26:11.552Z,1013.03
2016-08-29T13:31:08.231Z,1012.93
2016-08-29T13:36:04.924Z,1013.06
2016-08-29T13:41:02.029Z,1013.07
2016-08-29T13:45:59.189Z,1012.97
2016-08-29T13:50:55.586Z,1012.99
2016-08-29T13:55:52.195Z,1013.00
2016-08-29T14:00:48.791Z,1012.95
2016-08-29T14:05:45.700Z,1013.05
2016-08-29T14:10:42.701Z,1012.98
2016-08-29T14:15:39.650Z,1013.11
2016-08-29T14:20:36.425Z,1013.12
2016-08-29T14:25:33.021Z,1013.22
2016-08-29T14:30:30.150Z,1013.31
2016-08-29T14:35:26.874Z,1013.27
2016-08-29T14:40:24.741Z,1013.30
2016-08-29T14:45:20.887Z,1013.35
2016-08-29T14:50:18.789Z,1013.44
2016-08-29T14:55:15.368Z,1013.52
2016-08-29T15:00:12.140Z,1013.58
2016-08-29T15:05:08.667Z,1013.75
2016-08-29T15:10:05.352Z,1013.73
2016-08-29T15:15:04.307Z,1013.73
2016-08-29T15:20:00.600Z,1013.72
2016-08-29T15:25:02.379Z,1013.79
2016-08-29T15:29:58.185Z,1013.90
2016-08-29T15:34:54.800Z,1013.86
2016-08-29T15:39:51.458Z,1013.83
2016-08-29T15:44:48.345Z,1013.83
2016-08-29T15:49:47.624Z,1013.92
2016-08-29T15:54:43.559Z,1013.96
2016-08-29T15:59:41.654Z,1014.02
2016-08-29T16:04:37.888Z,1014.06
2016-08-29T16:09:34.457Z,1014.11
2016-08-29T16:14:31.148Z,1014.15
2016-08-29T16:19:28.081Z,1014.18
2016-08-29T16:24:24.729Z,1014.24
2016-08-29T16:29:21.658Z,1014.20
2016-08-29T16:34:18.338Z,1014.27
2016-08-29T16:39:14.903Z,1014.27
2016-08-29T16:44:11.500Z,1014.13
2016-08-29T16:49:08.127Z,1014.23
2016-08-29T16:54:04.903Z,1014.20
2016-08-29T16:59:01.653Z,1014.28
2016-08-29T17:03:58.385Z,1014.30
2016-08-29T17:08:55.535Z,1014.32
2016-08-29T17:13:52.082Z,1014.40
2016-08-29T17:18:48.649Z,1014.46
2016-08-29T17:23:45.422Z,1014.53
2016-08-29T17:28:42.088Z,1014.54
2016-08-29T17:33:38.663Z,1014.54
2016-08-29T17:38:34.960Z,1014.61
2016-08-29T17:43:32.078Z,1014.66
2016-08-29T17:48:28.513Z,1014.59
2016-08-29T17:53:25.189Z,1014.62
2016-08-29T17:58:21.798Z,1014.70
2016-08-29T18:03:18.625Z,1014.80
2016-08-29T18:08:15.233Z,1014.87
2016-08-29T18:13:12.059Z,1014.89
2016-08-29T18:18:08.676Z,1014.96
2016-08-29T18:23:05.250Z,1014.97
2016-08-29T18:28:02.156Z,1015.09
2016-08-29T18:32:58.596Z,1015.14
2016-08-29T18:37:55.171Z,1015.15
2016-08-29T18:42:51.730Z,1015.35
2016-08-29T18:47:48.323Z,1015.38
2016-08-29T18:52:45.105Z,1015.49
2016-08-29T18:57:41.754Z,1015.56
2016-08-29T19:02:41.115Z,1015.68
2016-08-29T19:07:42.577Z,1015.73
2016-08-29T19:12:38.314Z,1015.79
2016-08-29T19:17:37.213Z,1015.79
2016-08-29T19:22:33.289Z,1015.98
2016-08-29T19:27:29.979Z,1016.00
2016-08-29T19:32:26.538Z,1016.12
2016-08-29T19:37:23.118Z,1016.11
2016-08-29T19:42:19.700Z,1016.15
2016-08-29T19:47:16.244Z,1016.36
2016-08-29T19:52:12.904Z,1016.45
2016-08-29T19:57:09.555Z,1016.66
2016-08-29T20:02:07.908Z,1016.62
2016-08-29T20:07:04.302Z,1016.71
2016-08-29T20:12:00.935Z,1016.72
2016-08-29T20:16:57.666Z,1016.88
2016-08-29T20:21:54.641Z,1016.89
2016-08-29T20:26:51.621Z,1016.94
2016-08-29T20:31:48.360Z,1016.93
2016-08-29T20:36:45.368Z,1017.02
2016-08-29T20:41:42.014Z,1017.05
2016-08-29T20:46:38.564Z,1017.08
2016-08-29T20:51:35.285Z,1017.10
2016-08-29T20:56:32.621Z,1017.21
2016-08-29T21:01:29.061Z,1017.22
2016-08-29T21:06:26.718Z,1017.32
2016-08-29T21:11:23.448Z,1017.31
2016-08-29T21:16:20.163Z,1017.32
2016-08-29T21:21:16.822Z,1017.34
2016-08-29T21:26:13.251Z,1017.51
2016-08-29T21:31:10.278Z,1017.43
2016-08-29T21:36:06.967Z,1017.53
2016-08-29T21:41:03.535Z,1017.50
2016-08-29T21:46:00.190Z,1017.54
2016-08-29T21:50:56.907Z,1017.64
2016-08-29T21:55:53.345Z,1017.65
2016-08-29T22:00:50.066Z,1017.69
2016-08-29T22:05:47.030Z,1017.78
2016-08-29T22:10:43.571Z,1017.71
2016-08-29T22:15:40.473Z,1017.82
2016-08-29T22:20:38.284Z,1017.86
2016-08-29T22:25:34.704Z,1017.93
2016-08-29T22:30:31.363Z,1017.95
2016-08-29T22:35:28.016Z,1017.96
2016-08-29T22:40:24.424Z,1017.94
2016-08-29T22:45:22.072Z,1018.08
2016-08-29T22:50:18.514Z,1018.02
2016-08-29T22:55:14.956Z,1018.11
2016-08-29T23:00:11.472Z,1018.09
2016-08-29T23:05:08.703Z,1018.07
2016-08-29T23:10:05.126Z,1018.05
2016-08-29T23:15:03.276Z,1018.10
2016-08-29T23:19:59.774Z,1018.00
2016-08-29T23:24:56.862Z,1018.03
2016-08-29T23:29:53.550Z,1018.16
2016-08-29T23:34:50.005Z,1018.09
2016-08-29T23:39:46.587Z,1018.08
2016-08-29T23:44:43.548Z,1018.15
2016-08-29T23:49:40.694Z,1018.22
2016-08-29T23:54:37.169Z,1018.17
2016-08-29T23:59:34.206Z,1018.15
